createdAt,value
2018-05-25T00:00:33.379Z,12.81
2018-05-25T00:01:33.351Z,12.78
2018-05-25T00:02:33.389Z,12.73
2018-05-25T00:03:33.352Z,12.77
2018-05-25T00:04:33.329Z,12.71
2018-05-25T00:05:33.337Z,12.66
2018-05-25T00:06:33.314Z,12.73
2018-05-25T00:07:33.329Z,12.67
2018-05-25T00:08:33.325Z,12.7
2018-05-25T00:09:33.466Z,12.67
2018-05-25T00:10:33.340Z,12.7
2018-05-25T00:11:33.350Z,12.67
2018-05-25T00:12:33.322Z,12.74
2018-05-25T00:13:33.332Z,12.75
2018-05-25T00:14:33.338Z,12.73
2018-05-25T00:15:33.320Z,12.72
2018-05-25T00:16:33.376Z,12.69
2018-05-25T00:17:33.316Z,12.65
2018-05-25T00:18:33.342Z,12.68
2018-05-25T00:19:33.332Z,12.67
2018-05-25T00:20:33.327Z,12.72
2018-05-25T00:21:33.326Z,12.67
2018-05-25T00:22:33.335Z,12.69
2018-05-25T00:23:33.347Z,12.74
2018-05-25T00:24:33.329Z,12.73
2018-05-25T00:25:33.334Z,12.68
2018-05-25T00:26:33.482Z,12.71
2018-05-25T00:27:33.311Z,12.66
2018-05-25T00:28:33.327Z,12.59
2018-05-25T00:29:33.362Z,12.59
2018-05-25T00:30:33.338Z,12.65
2018-05-25T00:31:33.346Z,12.67
2018-05-25T00:32:33.387Z,12.65
2018-05-25T00:33:33.363Z,12.68
2018-05-25T00:34:33.359Z,12.67
2018-05-25T00:35:33.348Z,12.63
2018-05-25T00:36:33.360Z,12.66
2018-05-25T00:37:33.336Z,12.65
2018-05-25T00:38:33.364Z,12.62
2018-05-25T00:39:33.449Z,12.57
2018-05-25T00:40:33.341Z,12.53
2018-05-25T00:41:33.337Z,12.57
2018-05-25T00:42:33.317Z,12.57
2018-05-25T00:43:33.329Z,12.6
2018-05-25T00:44:33.468Z,12.54
2018-05-25T00:45:33.345Z,12.54
2018-05-25T00:46:33.330Z,12.49
2018-05-25T00:47:33.363Z,12.47
2018-05-25T00:48:33.343Z,12.5
2018-05-25T00:49:33.332Z,12.6
2018-05-25T00:50:33.350Z,12.51
2018-05-25T00:51:33.347Z,12.53
2018-05-25T00:52:33.327Z,12.54
2018-05-25T00:53:33.361Z,12.54
2018-05-25T00:54:33.349Z,12.49
2018-05-25T00:55:33.392Z,12.44
2018-05-25T00:56:33.346Z,12.43
2018-05-25T00:57:33.361Z,12.43
2018-05-25T00:58:33.398Z,12.4
2018-05-25T00:59:33.342Z,12.54
2018-05-25T01:00:33.374Z,12.46
2018-05-25T01:01:33.423Z,12.42
2018-05-25T01:02:33.536Z,12.48
2018-05-25T01:03:33.328Z,12.43
2018-05-25T01:04:33.372Z,12.44
2018-05-25T01:05:33.324Z,12.38
2018-05-25T01:06:33.344Z,12.41
2018-05-25T01:07:33.424Z,12.34
2018-05-25T01:08:33.390Z,12.37
2018-05-25T01:09:33.346Z,12.41
2018-05-25T01:10:33.372Z,12.38
2018-05-25T01:11:33.356Z,12.43
2018-05-25T01:12:33.357Z,12.4
2018-05-25T01:13:33.410Z,12.45
2018-05-25T01:14:33.452Z,12.42
2018-05-25T01:15:33.362Z,12.42
2018-05-25T01:16:33.327Z,12.48
2018-05-25T01:17:33.373Z,12.46
2018-05-25T01:18:33.424Z,12.45
2018-05-25T01:19:33.707Z,12.44
2018-05-25T01:20:33.381Z,12.46
2018-05-25T01:21:33.372Z,12.45
2018-05-25T01:22:33.357Z,12.49
2018-05-25T01:23:33.361Z,12.4
2018-05-25T01:24:33.376Z,12.42
2018-05-25T01:25:33.349Z,12.49
2018-05-25T01:26:33.401Z,12.46
2018-05-25T01:27:33.356Z,12.46
2018-05-25T01:28:33.382Z,12.55
2018-05-25T01:29:33.359Z,12.48
2018-05-25T01:30:33.342Z,12.51
2018-05-25T01:31:33.387Z,12.52
2018-05-25T01:32:33.355Z,12.47
2018-05-25T01:33:33.345Z,12.43
2018-05-25T01:34:33.346Z,12.51
2018-05-25T01:35:33.347Z,12.45
2018-05-25T01:36:33.373Z,12.42
2018-05-25T01:37:33.360Z,12.41
2018-05-25T01:38:33.372Z,12.44
2018-05-25T01:39:33.482Z,12.4
2018-05-25T01:40:33.758Z,12.4
2018-05-25T01:41:33.491Z,12.46
2018-05-25T01:42:33.400Z,12.41
2018-05-25T01:43:33.447Z,12.39
2018-05-25T01:44:33.376Z,12.42
2018-05-25T01:45:33.393Z,12.47
2018-05-25T01:46:33.513Z,12.41
2018-05-25T01:47:33.400Z,12.45
2018-05-25T01:48:33.349Z,12.47
2018-05-25T01:49:33.371Z,12.42
2018-05-25T01:50:33.376Z,12.42
2018-05-25T01:51:33.368Z,12.41
2018-05-25T01:52:33.495Z,12.38
2018-05-25T01:53:33.406Z,12.46
2018-05-25T01:54:33.398Z,12.39
2018-05-25T01:55:33.426Z,12.39
2018-05-25T01:56:33.405Z,12.45
2018-05-25T01:57:33.376Z,12.44
2018-05-25T01:58:33.359Z,12.38
2018-05-25T01:59:33.385Z,12.37
2018-05-25T02:00:33.394Z,12.43
2018-05-25T02:01:33.387Z,12.36
2018-05-25T02:02:33.372Z,12.36
2018-05-25T02:03:33.500Z,12.34
2018-05-25T02:04:33.355Z,12.4
2018-05-25T02:05:33.402Z,12.39
2018-05-25T02:06:33.427Z,12.39
2018-05-25T02:07:33.409Z,12.38
2018-05-25T02:08:33.390Z,12.43
2018-05-25T02:09:33.401Z,12.47
2018-05-25T02:10:33.657Z,12.46
2018-05-25T02:11:33.377Z,12.49
2018-05-25T02:12:33.366Z,12.43
2018-05-25T02:13:33.381Z,12.46
2018-05-25T02:14:33.401Z,12.39
2018-05-25T02:15:33.408Z,12.38
2018-05-25T02:16:33.380Z,12.42
2018-05-25T02:17:33.396Z,12.4
2018-05-25T02:18:33.399Z,12.37
2018-05-25T02:19:33.361Z,12.32
2018-05-25T02:20:33.403Z,12.33
2018-05-25T02:21:33.400Z,12.3
2018-05-25T02:22:33.444Z,12.39
2018-05-25T02:23:33.420Z,12.38
2018-05-25T02:24:33.403Z,12.41
2018-05-25T02:25:33.558Z,12.45
2018-05-25T02:26:33.383Z,12.44
2018-05-25T02:27:33.409Z,12.44
2018-05-25T02:28:33.524Z,12.46
2018-05-25T02:29:33.403Z,12.37
2018-05-25T02:30:33.439Z,12.36
2018-05-25T02:31:33.415Z,12.33
2018-05-25T02:32:33.390Z,12.29
2018-05-25T02:33:33.393Z,12.31
2018-05-25T02:34:33.411Z,12.28
2018-05-25T02:35:33.391Z,12.26
2018-05-25T02:36:33.401Z,12.31
2018-05-25T02:37:33.437Z,12.37
2018-05-25T02:38:33.697Z,12.3
2018-05-25T02:39:33.409Z,12.28
2018-05-25T02:40:33.438Z,12.26
2018-05-25T02:41:33.410Z,12.24
2018-05-25T02:42:33.373Z,12.25
2018-05-25T02:43:33.413Z,12.19
2018-05-25T02:44:33.389Z,12.21
2018-05-25T02:45:33.407Z,12.18
2018-05-25T02:46:33.424Z,12.21
2018-05-25T02:47:33.478Z,12.21
2018-05-25T02:48:33.403Z,12.22
2018-05-25T02:49:33.425Z,12.21
2018-05-25T02:50:33.376Z,12.22
2018-05-25T02:51:33.416Z,12.18
2018-05-25T02:52:33.397Z,12.19
2018-05-25T02:53:33.414Z,12.21
2018-05-25T02:54:33.415Z,12.16
2018-05-25T02:55:33.408Z,12.17
2018-05-25T02:56:33.672Z,12.17
2018-05-25T02:57:33.469Z,12.26
2018-05-25T02:58:33.463Z,12.19
2018-05-25T02:59:33.490Z,12.18
2018-05-25T03:00:33.893Z,12.18
2018-05-25T03:01:33.449Z,12.19
2018-05-25T03:02:33.408Z,12.17
2018-05-25T03:03:33.429Z,12.17
2018-05-25T03:04:33.493Z,12.18
2018-05-25T03:05:33.417Z,12.19
2018-05-25T03:06:33.451Z,12.22
2018-05-25T03:07:33.396Z,12.2
2018-05-25T03:08:33.440Z,12.25
2018-05-25T03:09:33.479Z,12.17
2018-05-25T03:10:33.408Z,12.19
2018-05-25T03:11:33.394Z,12.16
2018-05-25T03:12:33.423Z,12.16
2018-05-25T03:13:33.404Z,12.11
2018-05-25T03:14:33.443Z,12.1
2018-05-25T03:15:33.452Z,12.1
2018-05-25T03:16:33.430Z,12.12
2018-05-25T03:17:33.423Z,12.11
2018-05-25T03:18:33.400Z,12.1
2018-05-25T03:19:33.423Z,12.09
2018-05-25T03:20:33.448Z,12.1
2018-05-25T03:21:33.422Z,12.08
2018-05-25T03:22:33.416Z,12.17
2018-05-25T03:23:33.419Z,12.11
2018-05-25T03:24:33.408Z,12.14
2018-05-25T03:25:33.405Z,12.09
2018-05-25T03:26:33.441Z,12.07
2018-05-25T03:27:33.395Z,12.08
2018-05-25T03:28:33.422Z,12.04
2018-05-25T03:29:33.444Z,12.08
2018-05-25T03:30:33.430Z,12.06
2018-05-25T03:31:33.428Z,12
2018-05-25T03:32:33.501Z,11.99
2018-05-25T03:33:33.717Z,12.03
2018-05-25T03:34:33.455Z,12.01
2018-05-25T03:35:33.409Z,12.01
2018-05-25T03:36:33.448Z,11.97
2018-05-25T03:37:33.547Z,12
2018-05-25T03:38:33.462Z,12.04
2018-05-25T03:39:33.540Z,12.03
2018-05-25T03:40:33.428Z,12.05
2018-05-25T03:41:33.395Z,12.02
2018-05-25T03:42:33.400Z,12.01
2018-05-25T03:43:33.423Z,12.01
2018-05-25T03:44:33.469Z,12
2018-05-25T03:45:33.409Z,12
2018-05-25T03:46:33.421Z,11.98
2018-05-25T03:47:33.453Z,11.98
2018-05-25T03:48:33.418Z,11.99
2018-05-25T03:49:33.445Z,12.06
2018-05-25T03:50:33.430Z,12.05
2018-05-25T03:51:33.433Z,12.03
2018-05-25T03:52:33.460Z,12.02
2018-05-25T03:53:33.523Z,12.05
2018-05-25T03:54:33.573Z,12.04
2018-05-25T03:55:33.440Z,11.99
2018-05-25T03:56:33.418Z,12.02
2018-05-25T03:57:33.445Z,12.02
2018-05-25T03:58:33.441Z,12.01
2018-05-25T03:59:33.424Z,11.98
2018-05-25T04:00:33.440Z,12.07
2018-05-25T04:01:33.798Z,12.03
2018-05-25T04:02:33.439Z,11.99
2018-05-25T04:03:33.432Z,12.03
2018-05-25T04:04:33.446Z,12.03
2018-05-25T04:05:33.458Z,12.04
2018-05-25T04:06:33.451Z,12.07
2018-05-25T04:07:33.438Z,12.06
2018-05-25T04:08:33.569Z,12.13
2018-05-25T04:09:33.470Z,12.05
2018-05-25T04:10:33.487Z,12.13
2018-05-25T04:11:33.451Z,12.06
2018-05-25T04:12:33.457Z,12.08
2018-05-25T04:13:33.490Z,12
2018-05-25T04:14:34.505Z,12.02
2018-05-25T04:15:33.513Z,12.05
2018-05-25T04:16:33.450Z,12.05
2018-05-25T04:17:33.468Z,12.01
2018-05-25T04:18:33.513Z,12.02
2018-05-25T04:19:33.449Z,12.03
2018-05-25T04:20:33.456Z,12.01
2018-05-25T04:21:33.617Z,12.03
2018-05-25T04:22:33.500Z,12.03
2018-05-25T04:23:33.481Z,12.05
2018-05-25T04:24:33.471Z,12.03
2018-05-25T04:25:33.529Z,12.03
2018-05-25T04:26:33.456Z,12.01
2018-05-25T04:27:33.530Z,12.05
2018-05-25T04:28:33.490Z,12.06
2018-05-25T04:29:33.454Z,12.03
2018-05-25T04:30:33.589Z,12
2018-05-25T04:31:33.520Z,12.03
2018-05-25T04:32:33.470Z,12.05
2018-05-25T04:33:33.451Z,12.04
2018-05-25T04:34:33.450Z,12.02
2018-05-25T04:35:33.765Z,12.05
2018-05-25T04:36:33.471Z,12.04
2018-05-25T04:37:33.662Z,12.06
2018-05-25T04:38:33.463Z,12.02
2018-05-25T04:39:33.470Z,12.05
2018-05-25T04:40:33.454Z,12.05
2018-05-25T04:41:33.456Z,12.06
2018-05-25T04:42:33.446Z,12.13
2018-05-25T04:43:33.571Z,12.18
2018-05-25T04:44:33.510Z,12.09
2018-05-25T04:45:33.501Z,12.19
2018-05-25T04:46:33.455Z,12.23
2018-05-25T04:47:33.436Z,12.19
2018-05-25T04:48:33.469Z,12.16
2018-05-25T04:49:33.485Z,12.23
2018-05-25T04:50:33.480Z,12.19
2018-05-25T04:51:33.528Z,12.14
2018-05-25T04:52:33.472Z,12.19
2018-05-25T04:53:33.515Z,12.25
2018-05-25T04:54:33.464Z,12.28
2018-05-25T04:55:33.471Z,12.28
2018-05-25T04:56:33.478Z,12.24
2018-05-25T04:57:33.462Z,12.2
2018-05-25T04:58:33.480Z,12.34
2018-05-25T04:59:33.498Z,12.27
2018-05-25T05:00:33.503Z,12.23
2018-05-25T05:01:33.481Z,12.26
2018-05-25T05:02:33.543Z,12.3
2018-05-25T05:03:33.465Z,12.25
2018-05-25T05:04:33.472Z,12.27
2018-05-25T05:05:33.458Z,12.3
2018-05-25T05:06:33.487Z,12.36
2018-05-25T05:07:33.501Z,12.37
2018-05-25T05:08:33.495Z,12.35
2018-05-25T05:09:33.478Z,12.35
2018-05-25T05:10:33.498Z,12.36
2018-05-25T05:11:33.519Z,12.43
2018-05-25T05:12:33.494Z,12.33
2018-05-25T05:13:33.881Z,12.33
2018-05-25T05:14:33.495Z,12.36
2018-05-25T05:15:33.478Z,12.44
2018-05-25T05:16:33.500Z,12.46
2018-05-25T05:17:33.533Z,12.45
2018-05-25T05:18:33.545Z,12.41
2018-05-25T05:19:33.555Z,12.41
2018-05-25T05:20:33.573Z,12.43
2018-05-25T05:21:33.834Z,12.51
2018-05-25T05:22:33.505Z,12.48
2018-05-25T05:23:33.516Z,12.45
2018-05-25T05:24:33.540Z,12.49
2018-05-25T05:25:33.648Z,12.51
2018-05-25T05:26:33.566Z,12.51
2018-05-25T05:27:33.513Z,12.53
2018-05-25T05:28:33.549Z,12.48
2018-05-25T05:29:33.662Z,12.45
2018-05-25T05:30:33.502Z,12.54
2018-05-25T05:31:33.526Z,12.46
2018-05-25T05:32:33.472Z,12.47
2018-05-25T05:33:33.878Z,12.61
2018-05-25T05:34:33.518Z,12.65
2018-05-25T05:35:33.539Z,12.58
2018-05-25T05:36:33.509Z,12.57
2018-05-25T05:37:33.497Z,12.59
2018-05-25T05:38:33.555Z,12.55
2018-05-25T05:39:33.521Z,12.56
2018-05-25T05:40:33.516Z,12.58
2018-05-25T05:41:33.522Z,12.73
2018-05-25T05:42:33.519Z,12.67
2018-05-25T05:43:33.555Z,12.67
2018-05-25T05:44:33.509Z,12.7
2018-05-25T05:45:33.525Z,12.67
2018-05-25T05:46:33.538Z,12.7
2018-05-25T05:47:33.509Z,12.67
2018-05-25T05:48:33.541Z,12.66
2018-05-25T05:49:33.496Z,12.62
2018-05-25T05:50:33.630Z,12.67
2018-05-25T05:51:33.506Z,12.7
2018-05-25T05:52:33.506Z,12.73
2018-05-25T05:53:33.618Z,12.73
2018-05-25T05:54:33.562Z,12.73
2018-05-25T05:55:33.499Z,12.75
2018-05-25T05:56:33.717Z,12.76
2018-05-25T05:57:33.499Z,12.76
2018-05-25T05:58:33.525Z,12.78
2018-05-25T05:59:33.620Z,12.76
2018-05-25T06:00:33.539Z,12.79
2018-05-25T06:01:33.512Z,12.78
2018-05-25T06:02:33.565Z,12.79
2018-05-25T06:03:33.483Z,12.78
2018-05-25T06:04:33.521Z,12.82
2018-05-25T06:05:33.564Z,12.76
2018-05-25T06:06:34.135Z,12.86
2018-05-25T06:07:33.630Z,12.85
2018-05-25T06:08:33.499Z,12.8
2018-05-25T06:09:33.587Z,12.79
2018-05-25T06:10:33.499Z,12.85
2018-05-25T06:11:33.521Z,12.88
2018-05-25T06:12:33.510Z,12.84
2018-05-25T06:13:33.500Z,12.86
2018-05-25T06:14:33.501Z,12.8
2018-05-25T06:15:33.484Z,12.83
2018-05-25T06:16:33.496Z,12.81
2018-05-25T06:17:33.496Z,12.81
2018-05-25T06:18:33.519Z,12.8
2018-05-25T06:19:33.559Z,12.8
2018-05-25T06:20:33.512Z,12.74
2018-05-25T06:21:33.520Z,12.78
2018-05-25T06:22:33.553Z,12.71
2018-05-25T06:23:33.539Z,12.71
2018-05-25T06:24:33.537Z,12.75
2018-05-25T06:25:33.545Z,12.82
2018-05-25T06:26:33.599Z,12.82
2018-05-25T06:27:33.540Z,12.78
2018-05-25T06:28:33.601Z,12.82
2018-05-25T06:29:34.271Z,12.83
2018-05-25T06:30:33.642Z,12.87
2018-05-25T06:31:33.578Z,12.86
2018-05-25T06:32:33.536Z,12.83
2018-05-25T06:33:33.561Z,12.75
2018-05-25T06:34:33.642Z,12.82
2018-05-25T06:35:33.542Z,12.85
2018-05-25T06:36:33.538Z,12.86
2018-05-25T06:37:33.565Z,12.78
2018-05-25T06:38:33.555Z,12.75
2018-05-25T06:39:33.600Z,12.75
2018-05-25T06:40:33.544Z,12.77
2018-05-25T06:41:33.684Z,12.78
2018-05-25T06:42:33.584Z,12.76
2018-05-25T06:43:33.544Z,12.74
2018-05-25T06:44:33.581Z,12.75
2018-05-25T06:45:33.545Z,12.78
2018-05-25T06:46:33.552Z,12.76
2018-05-25T06:47:33.636Z,12.73
2018-05-25T06:48:33.654Z,12.77
2018-05-25T06:49:33.601Z,12.74
2018-05-25T06:50:34.099Z,12.74
2018-05-25T06:51:33.652Z,12.74
2018-05-25T06:52:33.544Z,12.76
2018-05-25T06:53:33.674Z,12.78
2018-05-25T06:54:33.571Z,12.78
2018-05-25T06:55:33.561Z,12.81
2018-05-25T06:56:33.705Z,12.83
2018-05-25T06:57:33.627Z,12.79
2018-05-25T06:58:33.585Z,12.78
2018-05-25T06:59:33.554Z,12.83
2018-05-25T07:00:33.549Z,12.77
2018-05-25T07:01:33.548Z,12.8
2018-05-25T07:02:33.594Z,12.77
2018-05-25T07:03:33.548Z,12.81
2018-05-25T07:04:33.539Z,12.74
2018-05-25T07:05:33.574Z,12.75
2018-05-25T07:06:33.605Z,12.78
2018-05-25T07:07:33.548Z,12.86
2018-05-25T07:08:33.688Z,12.88
2018-05-25T07:09:33.600Z,12.93
2018-05-25T07:10:33.584Z,12.84
2018-05-25T07:11:33.734Z,12.85
2018-05-25T07:12:33.609Z,12.95
2018-05-25T07:13:33.699Z,12.95
2018-05-25T07:14:33.635Z,12.82
2018-05-25T07:15:33.601Z,12.84
2018-05-25T07:16:33.666Z,12.85
2018-05-25T07:17:33.559Z,12.81
2018-05-25T07:18:33.785Z,12.78
2018-05-25T07:19:33.643Z,12.81
2018-05-25T07:20:33.573Z,12.83
2018-05-25T07:21:33.604Z,12.89
2018-05-25T07:22:33.555Z,12.96
2018-05-25T07:23:33.626Z,13.01
2018-05-25T07:24:33.508Z,12.98
2018-05-25T07:25:33.563Z,12.99
2018-05-25T07:26:33.632Z,13.07
2018-05-25T07:27:33.641Z,12.9
2018-05-25T07:28:33.661Z,12.99
2018-05-25T07:29:33.584Z,13.02
2018-05-25T07:30:33.694Z,12.95
2018-05-25T07:31:33.573Z,12.99
2018-05-25T07:32:33.597Z,12.99
2018-05-25T07:33:33.582Z,13.06
2018-05-25T07:34:33.572Z,13.02
2018-05-25T07:35:33.701Z,13.07
2018-05-25T07:36:33.582Z,13.1
2018-05-25T07:37:33.616Z,12.88
2018-05-25T07:38:33.650Z,12.91
2018-05-25T07:39:33.642Z,13.11
2018-05-25T07:40:33.709Z,13.06
2018-05-25T07:41:33.597Z,13.08
2018-05-25T07:42:33.617Z,13.08
2018-05-25T07:43:33.627Z,13.13
2018-05-25T07:44:33.635Z,13.21
2018-05-25T07:45:33.676Z,13.25
2018-05-25T07:46:33.654Z,13.23
2018-05-25T07:47:33.660Z,13.23
2018-05-25T07:48:33.591Z,13.26
2018-05-25T07:49:33.604Z,13.19
2018-05-25T07:50:34.258Z,13.17
2018-05-25T07:51:33.607Z,12.98
2018-05-25T07:52:33.656Z,13.14
2018-05-25T07:53:33.752Z,13.15
2018-05-25T07:54:33.673Z,13.19
2018-05-25T07:55:33.629Z,13.37
2018-05-25T07:56:33.642Z,13.32
2018-05-25T07:57:33.615Z,13.35
2018-05-25T07:58:33.637Z,13.42
2018-05-25T07:59:33.615Z,13.47
2018-05-25T08:00:33.636Z,13.4
2018-05-25T08:01:33.606Z,13.39
2018-05-25T08:02:33.623Z,13.4
2018-05-25T08:03:33.633Z,13.4
2018-05-25T08:04:33.630Z,13.37
2018-05-25T08:05:33.557Z,13.27
2018-05-25T08:06:33.617Z,13.3
2018-05-25T08:07:33.763Z,13.46
2018-05-25T08:08:33.667Z,13.45
2018-05-25T08:09:33.684Z,13.4
2018-05-25T08:10:33.604Z,13.32
2018-05-25T08:11:33.623Z,13.28
2018-05-25T08:12:33.620Z,13.1
2018-05-25T08:13:33.735Z,13.26
2018-05-25T08:14:33.809Z,13.12
2018-05-25T08:15:33.614Z,13.21
2018-05-25T08:16:33.671Z,13.13
2018-05-25T08:17:33.695Z,13.1
2018-05-25T08:18:33.762Z,13.13
2018-05-25T08:19:33.608Z,13.2
2018-05-25T08:20:33.604Z,13.28
2018-05-25T08:21:33.733Z,13.24
2018-05-25T08:22:33.684Z,13.25
2018-05-25T08:23:33.708Z,13.4
2018-05-25T08:24:34.729Z,13.4
2018-05-25T08:25:33.634Z,13.34
2018-05-25T08:26:33.624Z,13.23
2018-05-25T08:27:33.603Z,13.31
2018-05-25T08:28:33.624Z,13.18
2018-05-25T08:29:33.554Z,13.28
2018-05-25T08:30:33.579Z,13.29
2018-05-25T08:31:33.736Z,13.35
2018-05-25T08:32:33.653Z,13.18
2018-05-25T08:33:33.588Z,13.16
2018-05-25T08:34:33.632Z,13.21
2018-05-25T08:35:33.640Z,13.25
2018-05-25T08:36:33.667Z,13.36
2018-05-25T08:37:33.625Z,13.45
2018-05-25T08:38:33.631Z,13.51
2018-05-25T08:39:33.607Z,13.38
2018-05-25T08:40:33.617Z,13.17
2018-05-25T08:41:33.649Z,13.19
2018-05-25T08:42:33.765Z,13.36
2018-05-25T08:43:33.621Z,13.49
2018-05-25T08:44:33.602Z,13.6
2018-05-25T08:45:33.626Z,13.57
2018-05-25T08:46:33.610Z,13.48
2018-05-25T08:47:33.622Z,13.39
2018-05-25T08:48:33.624Z,13.46
2018-05-25T08:49:34.075Z,13.58
2018-05-25T08:50:33.621Z,13.56
2018-05-25T08:51:33.608Z,13.65
2018-05-25T08:52:33.656Z,13.56
2018-05-25T08:53:33.631Z,13.4
2018-05-25T08:54:33.628Z,13.42
2018-05-25T08:55:33.607Z,13.31
2018-05-25T08:56:33.612Z,13.24
2018-05-25T08:57:33.626Z,13.26
2018-05-25T08:58:33.627Z,13.3
2018-05-25T08:59:33.614Z,13.29
2018-05-25T09:00:33.609Z,13.4
2018-05-25T09:01:33.579Z,13.35
2018-05-25T09:02:33.752Z,13.59
2018-05-25T09:03:33.599Z,13.74
2018-05-25T09:04:33.590Z,13.78
2018-05-25T09:05:33.570Z,13.65
2018-05-25T09:06:33.618Z,13.71
2018-05-25T09:07:33.636Z,13.72
2018-05-25T09:08:33.653Z,13.81
2018-05-25T09:09:33.637Z,13.88
2018-05-25T09:10:33.594Z,13.72
2018-05-25T09:11:33.656Z,13.59
2018-05-25T09:12:33.786Z,13.4
2018-05-25T09:13:33.679Z,13.57
2018-05-25T09:14:33.605Z,13.8
2018-05-25T09:15:33.588Z,13.72
2018-05-25T09:16:33.684Z,13.47
2018-05-25T09:17:33.652Z,13.67
2018-05-25T09:18:33.799Z,13.72
2018-05-25T09:19:33.633Z,13.76
2018-05-25T09:20:33.626Z,13.58
2018-05-25T09:21:33.801Z,13.87
2018-05-25T09:22:33.652Z,13.69
2018-05-25T09:23:33.629Z,13.94
2018-05-25T09:24:33.640Z,14
2018-05-25T09:25:33.606Z,13.84
2018-05-25T09:26:33.725Z,13.99
2018-05-25T09:27:33.663Z,14.1
2018-05-25T09:28:33.598Z,13.92
2018-05-25T09:29:33.591Z,13.93
2018-05-25T09:30:33.610Z,14.12
2018-05-25T09:31:33.659Z,13.77
2018-05-25T09:32:33.778Z,13.71
2018-05-25T09:33:33.615Z,13.99
2018-05-25T09:34:33.621Z,13.81
2018-05-25T09:35:33.732Z,13.72
2018-05-25T09:36:33.601Z,13.9
2018-05-25T09:37:33.630Z,13.96
2018-05-25T09:38:33.633Z,14.07
2018-05-25T09:39:33.617Z,13.98
2018-05-25T09:40:33.598Z,14.14
2018-05-25T09:41:33.652Z,14.22
2018-05-25T09:42:33.633Z,14.25
2018-05-25T09:43:33.793Z,14.35
2018-05-25T09:44:33.634Z,14.33
2018-05-25T09:45:34.367Z,14.4
2018-05-25T09:46:33.864Z,14.29
2018-05-25T09:47:33.697Z,14.43
2018-05-25T09:48:33.661Z,14.49
2018-05-25T09:49:33.672Z,14.28
2018-05-25T09:50:33.651Z,14.01
2018-05-25T09:51:33.639Z,13.95
2018-05-25T09:52:33.654Z,13.72
2018-05-25T09:53:33.682Z,13.76
2018-05-25T09:54:33.811Z,13.82
2018-05-25T09:55:33.639Z,13.77
2018-05-25T09:56:33.627Z,14.02
2018-05-25T09:57:33.689Z,14.21
2018-05-25T09:58:33.714Z,14.1
2018-05-25T09:59:33.646Z,14.04
2018-05-25T10:00:33.607Z,13.99
2018-05-25T10:01:33.640Z,13.9
2018-05-25T10:02:33.638Z,13.95
2018-05-25T10:03:33.638Z,14.02
2018-05-25T10:04:33.642Z,14.06
2018-05-25T10:05:33.747Z,13.99
2018-05-25T10:06:33.626Z,13.9
2018-05-25T10:07:33.628Z,13.91
2018-05-25T10:08:33.873Z,13.79
2018-05-25T10:09:33.643Z,13.73
2018-05-25T10:10:33.693Z,13.73
2018-05-25T10:11:33.636Z,13.62
2018-05-25T10:12:33.651Z,13.68
2018-05-25T10:13:33.643Z,13.61
2018-05-25T10:14:33.658Z,13.74
2018-05-25T10:15:33.658Z,13.74
2018-05-25T10:16:33.663Z,13.8
2018-05-25T10:17:33.656Z,13.62
2018-05-25T10:18:33.633Z,13.8
2018-05-25T10:19:33.643Z,13.94
2018-05-25T10:20:33.663Z,13.58
2018-05-25T10:21:33.650Z,13.49
2018-05-25T10:22:33.677Z,13.44
2018-05-25T10:23:33.685Z,13.42
2018-05-25T10:24:33.725Z,13.37
2018-05-25T10:25:33.650Z,13.72
2018-05-25T10:26:33.655Z,13.69
2018-05-25T10:27:33.662Z,13.48
2018-05-25T10:28:33.674Z,13.57
2018-05-25T10:29:33.748Z,13.64
2018-05-25T10:30:33.651Z,13.73
2018-05-25T10:31:33.654Z,13.64
2018-05-25T10:32:33.670Z,13.38
2018-05-25T10:33:33.903Z,14
2018-05-25T10:34:33.653Z,14.27
2018-05-25T10:35:33.652Z,13.9
2018-05-25T10:36:33.656Z,13.83
2018-05-25T10:37:33.670Z,14.3
2018-05-25T10:38:33.698Z,14.4
2018-05-25T10:39:33.677Z,14.35
2018-05-25T10:40:33.650Z,14.38
2018-05-25T10:41:33.682Z,14.57
2018-05-25T10:42:33.769Z,14.26
2018-05-25T10:43:33.647Z,13.74
2018-05-25T10:44:33.654Z,13.93
2018-05-25T10:45:33.882Z,13.87
2018-05-25T10:46:33.625Z,13.96
2018-05-25T10:47:33.671Z,13.78
2018-05-25T10:48:33.747Z,14.04
2018-05-25T10:49:33.754Z,14
2018-05-25T10:50:33.847Z,13.74
2018-05-25T10:51:33.797Z,13.93
2018-05-25T10:52:33.668Z,14.18
2018-05-25T10:53:33.661Z,14.22
2018-05-25T10:54:33.662Z,14.13
2018-05-25T10:55:33.718Z,14.14
2018-05-25T10:56:33.669Z,13.93
2018-05-25T10:57:33.689Z,13.8
2018-05-25T10:58:33.659Z,13.92
2018-05-25T10:59:33.744Z,13.91
2018-05-25T11:00:33.664Z,13.62
2018-05-25T11:01:33.708Z,13.98
2018-05-25T11:02:33.677Z,14
2018-05-25T11:03:33.710Z,14.1
2018-05-25T11:04:33.660Z,13.8
2018-05-25T11:05:33.860Z,13.37
2018-05-25T11:06:33.661Z,13.27
2018-05-25T11:07:33.688Z,13.19
2018-05-25T11:08:33.667Z,13.17
2018-05-25T11:09:33.670Z,13.09
2018-05-25T11:10:33.658Z,13.01
2018-05-25T11:11:33.821Z,13.25
2018-05-25T11:12:33.691Z,13.06
2018-05-25T11:13:33.800Z,13.53
2018-05-25T11:14:33.725Z,13.74
2018-05-25T11:15:33.709Z,13.88
2018-05-25T11:16:33.799Z,13.75
2018-05-25T11:17:33.674Z,13.89
2018-05-25T11:18:33.665Z,13.94
2018-05-25T11:19:33.890Z,14.03
2018-05-25T11:20:33.867Z,13.76
2018-05-25T11:21:33.874Z,13.64
2018-05-25T11:22:33.987Z,13.63
2018-05-25T11:23:33.905Z,13.83
2018-05-25T11:24:33.673Z,13.98
2018-05-25T11:25:33.791Z,13.84
2018-05-25T11:26:33.675Z,13.92
2018-05-25T11:27:33.742Z,13.79
2018-05-25T11:28:33.729Z,13.82
2018-05-25T11:29:33.670Z,13.69
2018-05-25T11:30:33.679Z,13.93
2018-05-25T11:31:33.937Z,13.8
2018-05-25T11:32:33.731Z,14.01
2018-05-25T11:33:33.834Z,13.91
2018-05-25T11:34:33.763Z,13.96
2018-05-25T11:35:33.699Z,14.05
2018-05-25T11:36:33.868Z,14.12
2018-05-25T11:37:33.875Z,13.91
2018-05-25T11:38:33.867Z,13.94
2018-05-25T11:39:33.722Z,14.18
2018-05-25T11:40:33.832Z,14.08
2018-05-25T11:41:33.783Z,13.76
2018-05-25T11:42:33.700Z,13.85
2018-05-25T11:43:33.808Z,13.79
2018-05-25T11:44:33.919Z,13.73
2018-05-25T11:45:33.736Z,13.64
2018-05-25T11:46:33.830Z,13.38
2018-05-25T11:47:33.849Z,13.39
2018-05-25T11:48:33.692Z,13.37
2018-05-25T11:49:33.687Z,13.09
2018-05-25T11:50:33.855Z,13.28
2018-05-25T11:51:33.679Z,13.08
2018-05-25T11:52:33.868Z,13.13
2018-05-25T11:53:33.813Z,13.02
2018-05-25T11:54:33.712Z,12.99
2018-05-25T11:55:33.994Z,13.37
2018-05-25T11:56:33.705Z,13.13
2018-05-25T11:57:33.786Z,13.13
2018-05-25T11:58:33.811Z,12.98
2018-05-25T11:59:33.804Z,13.04
2018-05-25T12:00:33.817Z,13.13
2018-05-25T12:01:33.832Z,13.24
2018-05-25T12:02:33.828Z,13.36
2018-05-25T12:03:35.889Z,13.21
2018-05-25T12:04:33.945Z,13.42
2018-05-25T12:05:33.858Z,13.41
2018-05-25T12:06:34.035Z,13.48
2018-05-25T12:07:33.862Z,13.53
2018-05-25T12:08:33.734Z,13.46
2018-05-25T12:09:33.695Z,13.37
2018-05-25T12:10:33.892Z,13.51
2018-05-25T12:11:33.744Z,13.48
2018-05-25T12:12:33.742Z,13.24
2018-05-25T12:13:34.950Z,13.23
2018-05-25T12:14:33.917Z,13.29
2018-05-25T12:15:33.790Z,13.38
2018-05-25T12:16:34.224Z,13.45
2018-05-25T12:17:33.867Z,13.38
2018-05-25T12:18:33.735Z,13.34
2018-05-25T12:19:33.737Z,13.12
2018-05-25T12:20:33.887Z,13.46
2018-05-25T12:21:33.690Z,13.04
2018-05-25T12:22:33.872Z,13.06
2018-05-25T12:23:33.772Z,13.19
2018-05-25T12:24:33.770Z,13.11
2018-05-25T12:25:34.402Z,12.78
2018-05-25T12:26:33.743Z,12.66
2018-05-25T12:27:33.748Z,12.71
2018-05-25T12:28:33.813Z,12.37
2018-05-25T12:29:33.764Z,12.5
2018-05-25T12:30:33.731Z,12.44
2018-05-25T12:31:33.976Z,12.63
2018-05-25T12:32:33.765Z,12.6
2018-05-25T12:33:33.738Z,12.36
2018-05-25T12:34:33.850Z,12.57
2018-05-25T12:35:33.719Z,12.61
2018-05-25T12:36:33.728Z,12.57
2018-05-25T12:37:33.875Z,12.36
2018-05-25T12:38:33.838Z,12.37
2018-05-25T12:39:33.859Z,12.2
2018-05-25T12:40:34.027Z,12.38
2018-05-25T12:41:33.715Z,12.69
2018-05-25T12:42:33.740Z,13
2018-05-25T12:43:33.934Z,13.1
2018-05-25T12:44:33.748Z,13.24
2018-05-25T12:45:33.774Z,13.24
2018-05-25T12:46:39.698Z,13.27
2018-05-25T12:47:33.731Z,13.48
2018-05-25T12:48:33.746Z,13.56
2018-05-25T12:49:34.179Z,13.52
2018-05-25T12:50:33.937Z,13.48
2018-05-25T12:51:33.862Z,13.52
2018-05-25T12:52:33.881Z,13.51
2018-05-25T12:53:33.884Z,13.32
2018-05-25T12:54:33.937Z,13.27
2018-05-25T12:55:33.811Z,13.34